Time;durP1;ratioP1;P1;durP2;ratioP2;P2;SDS_P1;SDS_P2;PMS_P1;PMS_P2;Temp;Humidity;BMP_temperature;BMP_pressure;BME280_temperature;BME280_humidity;BME280_pressure;Samples;Min_cycle;Max_cycle;Signal;HPM_P1;HPM_P2
2023/06/05 00:02:09;;;;;;;;;6.25;6.25;;;;;18.19;51.74;100934.75;5034922;28;46253;-66
2023/06/05 00:04:39;;;;;;;;;6.25;6.25;;;;;18.16;51.79;100934.06;5034781;28;45338;-69
2023/06/05 00:07:05;;;;;;;;;6.75;6.75;;;;;18.03;52.12;100921.59;5033788;28;45296;-70
2023/06/05 00:09:30;;;;;;;;;7.00;7.00;;;;;18.08;52.14;100930.13;5050301;28;45438;-68
2023/06/05 00:11:55;;;;;;;;;5.50;5.50;;;;;18.04;52.58;100931.28;5034984;28;46266;-68
2023/06/05 00:14:21;;;;;;;;;6.75;6.75;;;;;18.02;52.45;100927.00;5034844;28;45377;-68
2023/06/05 00:16:46;;;;;;;;;5.25;5.25;;;;;17.95;52.51;100922.03;5034467;28;52670;-67
2023/06/05 00:19:12;;;;;;;;;6.00;6.00;;;;;17.91;52.25;100915.22;5033147;28;51123;-69
2023/06/05 00:21:37;;;;;;;;;5.75;5.75;;;;;17.93;52.66;100923.97;5034719;28;47370;-69
2023/06/05 00:24:03;;;;;;;;;8.00;8.00;;;;;17.89;53.30;100925.13;5033247;28;45274;-68
2023/06/05 00:26:28;;;;;;;;;7.25;7.25;;;;;17.84;53.37;100921.06;5034626;28;45435;-68
2023/06/05 00:28:53;;;;;;;;;5.00;5.00;;;;;17.76;53.52;100918.88;5033621;28;45447;-70
2023/06/05 00:31:21;;;;;;;;;7.50;7.50;;;;;17.78;53.05;100933.81;5033147;28;46954;-69
2023/06/05 00:33:47;;;;;;;;;7.00;7.00;;;;;17.76;54.03;100940.19;5034653;28;45333;-68
2023/06/05 00:36:13;;;;;;;;;6.00;6.00;;;;;17.70;53.46;100928.13;5035011;28;45381;-68
2023/06/05 00:38:38;;;;;;;;;6.00;6.00;;;;;17.70;53.73;100933.47;5033204;28;45440;-69
2023/06/05 00:41:03;;;;;;;;;5.00;5.00;;;;;17.63;54.23;100927.66;5034171;28;45344;-69
2023/06/05 00:43:29;;;;;;;;;8.00;8.00;;;;;17.63;53.69;100934.81;5034062;28;45584;-68
2023/06/05 00:45:59;;;;;;;;;5.25;5.25;;;;;17.63;53.76;100932.16;5038276;28;45316;-68
2023/06/05 00:48:25;;;;;;;;;6.00;6.00;;;;;17.62;53.82;100941.09;5038494;28;45397;-66
2023/06/05 00:50:50;;;;;;;;;6.00;6.00;;;;;17.52;53.99;100924.84;5037761;28;45385;-68
2023/06/05 00:53:16;;;;;;;;;5.75;5.75;;;;;17.55;53.92;100932.63;5037906;28;45352;-68
2023/06/05 00:55:42;;;;;;;;;6.25;6.25;;;;;17.48;54.02;100932.16;5036501;28;45347;-66
2023/06/05 00:58:08;;;;;;;;;4.00;4.00;;;;;17.45;54.70;100932.34;5037961;28;45521;-65
2023/06/05 01:00:34;;;;;;;;;5.75;5.75;;;;;17.43;54.69;100939.56;5037866;28;45692;-69
2023/06/05 01:02:59;;;;;;;;;7.00;7.00;;;;;17.35;54.74;100934.75;5038364;28;45251;-68
2023/06/05 01:05:26;;;;;;;;;4.00;4.00;;;;;17.29;55.11;100937.81;5038113;28;45394;-67
2023/06/05 01:07:53;;;;;;;;;6.00;6.00;;;;;17.27;54.95;100931.72;5037723;28;45344;-71
2023/06/05 01:10:18;;;;;;;;;6.00;6.00;;;;;17.23;55.17;100927.56;5036946;28;45574;-68
2023/06/05 01:12:56;;;;;;;;;7.00;7.00;;;;;17.22;55.42;100925.84;5037328;28;45362;-67
2023/06/05 01:15:28;;;;;;;;;7.00;7.00;;;;;17.18;55.89;100934.97;5037795;28;45344;-68
2023/06/05 01:17:56;;;;;;;;;6.00;6.00;;;;;17.11;55.62;100925.66;5037800;28;45401;-64
2023/06/05 01:20:22;;;;;;;;;7.25;6.75;;;;;17.08;56.02;100930.22;5037188;28;47213;-67
2023/06/05 01:22:52;;;;;;;;;7.75;7.75;;;;;17.05;56.36;100934.88;5037130;28;45319;-69
2023/06/05 01:25:18;;;;;;;;;7.00;7.00;;;;;16.98;56.53;100929.09;5036048;28;45436;-70
2023/06/05 01:27:52;;;;;;;;;5.25;5.25;;;;;16.96;56.05;100935.41;5037450;28;45374;-69
2023/06/05 01:30:24;;;;;;;;;5.50;5.50;;;;;16.91;56.26;100938.34;5037100;28;46461;-70
2023/06/05 01:32:55;;;;;;;;;7.00;7.00;;;;;16.90;56.62;100939.28;5035620;28;45300;-68
2023/06/05 01:35:27;;;;;;;;;6.75;6.75;;;;;16.89;56.46;100942.88;5052489;28;45362;-66
2023/06/05 01:37:54;;;;;;;;;6.00;6.00;;;;;16.83;57.07;100943.25;5036988;28;45237;-67
2023/06/05 01:40:24;;;;;;;;;6.25;5.25;;;;;16.75;57.28;100933.97;5036802;28;46177;-67
2023/06/05 01:42:51;;;;;;;;;7.75;7.75;;;;;16.74;57.79;100929.59;5036717;28;45383;-68
2023/06/05 01:45:17;;;;;;;;;7.50;7.50;;;;;16.72;57.23;100933.31;5037012;28;45287;-68
2023/06/05 01:47:43;;;;;;;;;7.25;7.25;;;;;16.71;57.58;100943.06;5037104;28;45397;-69
2023/06/05 01:50:12;;;;;;;;;5.50;5.50;;;;;16.70;57.48;100935.19;5036683;28;46004;-68
2023/06/05 01:52:39;;;;;;;;;5.00;5.00;;;;;16.66;57.78;100950.44;5035377;28;45716;-67
2023/06/05 01:55:06;;;;;;;;;7.00;6.25;;;;;16.60;58.05;100932.22;5036334;28;45170;-67
2023/06/05 01:57:33;;;;;;;;;5.25;5.25;;;;;16.55;58.17;100935.19;5037220;28;45637;-67
2023/06/05 02:00:01;;;;;;;;;4.00;4.00;;;;;16.54;58.26;100919.31;5036677;28;46193;-68
2023/06/05 02:02:28;;;;;;;;;7.00;7.00;;;;;16.52;58.16;100926.53;5036555;28;45410;-65
2023/06/05 02:04:54;;;;;;;;;7.00;7.00;;;;;16.47;58.66;100916.19;5036699;28;45174;-67
2023/06/05 02:07:21;;;;;;;;;9.25;8.00;;;;;16.40;58.90;100921.00;5036499;28;45227;-67
2023/06/05 02:09:47;;;;;;;;;7.25;7.25;;;;;16.37;59.01;100923.84;5035938;28;46484;-66
2023/06/05 02:12:14;;;;;;;;;6.00;6.00;;;;;16.31;58.68;100916.25;5036320;28;45280;-69
2023/06/05 02:14:44;;;;;;;;;6.75;6.75;;;;;16.27;59.34;100920.03;5034522;28;45375;-67
2023/06/05 02:17:13;;;;;;;;;8.00;8.00;;;;;16.23;59.72;100915.84;5036474;28;45261;-68
2023/06/05 02:19:41;;;;;;;;;7.50;7.50;;;;;16.17;59.45;100909.06;5036104;28;47405;-68
2023/06/05 02:22:06;;;;;;;;;8.00;7.25;;;;;16.18;60.16;100913.44;5036040;28;45465;-69
2023/06/05 02:24:32;;;;;;;;;6.50;6.50;;;;;16.15;59.88;100913.63;5036621;28;45398;-65
2023/06/05 02:26:57;;;;;;;;;8.00;8.00;;;;;16.06;60.20;100909.72;5035001;28;45552;-65
2023/06/05 02:29:23;;;;;;;;;8.25;8.25;;;;;16.04;61.17;100908.97;5034582;28;47126;-63
2023/06/05 02:31:48;;;;;;;;;6.00;6.00;;;;;16.02;60.71;100919.66;5035798;28;45432;-65
2023/06/05 02:34:14;;;;;;;;;10.00;10.00;;;;;15.95;60.68;100912.97;5034650;28;45283;-65
2023/06/05 02:36:40;;;;;;;;;8.00;8.00;;;;;15.95;60.85;100912.97;5034934;28;45553;-66
2023/06/05 02:39:06;;;;;;;;;5.25;5.25;;;;;15.89;61.01;100906.22;5036082;28;46481;-65
2023/06/05 02:41:31;;;;;;;;;5.50;5.50;;;;;15.94;61.15;100923.69;5036097;28;45285;-66
2023/06/05 02:43:58;;;;;;;;;7.25;7.25;;;;;15.94;61.59;100916.59;5036123;28;45240;-67
2023/06/05 02:46:24;;;;;;;;;9.00;9.00;;;;;15.90;61.79;100905.31;5036423;28;45457;-65
2023/06/05 02:48:50;;;;;;;;;6.00;6.00;;;;;15.84;61.36;100905.59;5035618;28;45309;-65
2023/06/05 02:51:16;;;;;;;;;7.00;7.00;;;;;15.82;62.13;100906.66;5034327;28;45533;-65
2023/06/05 02:53:41;;;;;;;;;8.00;8.00;;;;;15.78;62.62;100906.81;5035852;28;45359;-67
2023/06/05 02:56:07;;;;;;;;;7.00;7.00;;;;;15.74;62.22;100905.28;5035951;28;45580;-65
2023/06/05 02:58:33;;;;;;;;;9.25;9.25;;;;;15.69;62.29;100899.38;5036015;28;46530;-68
2023/06/05 03:01:01;;;;;;;;;8.00;8.00;;;;;15.63;62.58;100892.63;5035671;28;45343;-69
2023/06/05 03:03:31;;;;;;;;;8.25;8.25;;;;;15.65;63.19;100910.25;5035826;28;45322;-70
2023/06/05 03:06:03;;;;;;;;;7.50;7.50;;;;;15.61;63.31;100905.13;5035042;28;45338;-67
2023/06/05 03:08:32;;;;;;;;;7.50;7.50;;;;;15.57;63.34;100900.09;5035195;28;45594;-68
2023/06/05 03:11:02;;;;;;;;;8.75;8.75;;;;;15.55;63.67;100909.91;5033852;28;45612;-66
2023/06/05 03:13:28;;;;;;;;;8.00;8.00;;;;;15.48;65.03;100904.09;5035720;28;45473;-69
2023/06/05 03:16:00;;;;;;;;;9.75;9.50;;;;;15.40;64.77;100901.88;5034296;28;45407;-67
2023/06/05 03:18:27;;;;;;;;;9.00;9.00;;;;;15.40;65.05;100904.53;5035340;28;45965;-67
2023/06/05 03:20:56;;;;;;;;;8.50;8.50;;;;;15.37;64.99;100902.03;5035424;28;45484;-66
2023/06/05 03:23:25;;;;;;;;;8.00;8.00;;;;;15.21;64.86;100880.84;5035393;28;45482;-64
2023/06/05 03:25:51;;;;;;;;;8.25;8.25;;;;;15.33;64.95;100901.34;5035425;28;45312;-66
2023/06/05 03:28:20;;;;;;;;;10.00;9.25;;;;;15.30;65.88;100909.47;5035018;28;45378;-65
2023/06/05 03:30:46;;;;;;;;;9.00;9.00;;;;;15.24;66.75;100903.63;5033935;28;45472;-69
2023/06/05 03:33:13;;;;;;;;;9.00;9.00;;;;;15.19;66.57;100902.09;5035407;28;45340;-67
2023/06/05 03:35:40;;;;;;;;;8.50;8.50;;;;;15.15;66.53;100908.50;5050955;28;45426;-68
2023/06/05 03:38:05;;;;;;;;;10.00;10.00;;;;;15.13;66.93;100915.69;5035311;28;46031;-70
2023/06/05 03:40:31;;;;;;;;;9.50;9.50;;;;;15.07;67.17;100901.94;5033523;28;45311;-68
2023/06/05 03:42:56;;;;;;;;;8.00;8.00;;;;;15.08;67.05;100912.44;5035147;28;45407;-71
2023/06/05 03:45:22;;;;;;;;;10.00;10.00;;;;;15.08;67.29;100908.94;5035425;28;45623;-69
2023/06/05 03:47:48;;;;;;;;;10.75;10.75;;;;;15.01;67.59;100900.44;5033446;28;47063;-66
2023/06/05 03:50:17;;;;;;;;;9.25;9.25;;;;;15.02;67.67;100910.97;5034826;28;45486;-65
2023/06/05 03:52:43;;;;;;;;;9.00;9.00;;;;;14.98;67.86;100906.78;5034858;28;45361;-69
2023/06/05 03:55:09;;;;;;;;;10.25;10.25;;;;;14.98;67.80;100909.44;5035362;28;45561;-71
2023/06/05 03:57:37;;;;;;;;;9.75;9.75;;;;;14.98;68.28;100921.81;5034857;28;46306;-70
2023/06/05 04:00:05;;;;;;;;;8.75;8.75;;;;;14.90;68.15;100907.19;5034718;28;45387;-69
2023/06/05 04:02:30;;;;;;;;;8.75;8.75;;;;;14.93;68.95;100914.13;5034863;28;45319;-66
2023/06/05 04:04:56;;;;;;;;;10.25;10.25;;;;;14.91;68.69;100921.28;5033392;28;45323;-69
2023/06/05 04:07:21;;;;;;;;;11.00;11.00;;;;;14.89;69.44;100915.22;5034532;28;46320;-63
2023/06/05 04:09:46;;;;;;;;;11.00;11.00;;;;;14.85;68.86;100909.22;5035865;28;45479;-67
2023/06/05 04:12:14;;;;;;;;;11.00;11.00;;;;;14.89;69.90;100913.41;5035892;28;45343;-71
2023/06/05 04:14:39;;;;;;;;;11.00;11.00;;;;;14.85;69.73;100913.69;5033748;28;45403;-70
2023/06/05 04:17:05;;;;;;;;;12.00;10.50;;;;;14.84;70.35;100918.09;5035402;28;46316;-70
2023/06/05 04:19:30;;;;;;;;;10.25;9.25;;;;;14.80;70.78;100913.91;5039865;28;45288;-69
2023/06/05 04:21:56;;;;;;;;;10.00;10.00;;;;;14.75;70.73;100914.13;5041170;28;45285;-68
2023/06/05 04:24:21;;;;;;;;;10.75;10.25;;;;;14.72;70.72;100916.94;5041399;28;45323;-67
2023/06/05 04:26:47;;;;;;;;;10.50;10.50;;;;;14.72;70.97;100927.53;5040609;28;54711;-68
2023/06/05 04:29:15;;;;;;;;;13.25;12.50;;;;;14.73;70.56;100929.25;5040964;28;45257;-66
2023/06/05 04:31:44;;;;;;;;;11.50;11.50;;;;;14.78;71.21;100934.31;5040076;28;45306;-67
2023/06/05 04:34:10;;;;;;;;;12.00;12.00;;;;;14.75;70.37;100932.66;5041373;28;45448;-67
2023/06/05 04:36:36;;;;;;;;;10.75;10.75;;;;;14.79;71.24;100929.84;5039094;28;47183;-69
2023/06/05 04:39:03;;;;;;;;;13.00;13.00;;;;;14.77;72.12;100931.72;5040700;28;45281;-71
2023/06/05 04:41:29;;;;;;;;;13.00;13.00;;;;;14.75;71.91;100934.47;5040820;28;45389;-70
2023/06/05 04:43:57;;;;;;;;;9.75;9.75;;;;;14.76;71.46;100936.19;5041110;28;45332;-71
2023/06/05 04:46:23;;;;;;;;;12.75;12.25;;;;;14.76;72.11;100941.47;5040638;28;45562;-69
2023/06/05 04:48:48;;;;;;;;;12.75;12.75;;;;;14.72;72.36;100938.13;5039372;28;45790;-66
2023/06/05 04:51:14;;;;;;;;;10.75;10.75;;;;;14.73;71.40;100931.06;5040716;28;45392;-67
2023/06/05 04:53:41;;;;;;;;;13.00;13.00;;;;;14.75;71.97;100939.78;5041500;28;45236;-68
2023/06/05 04:56:07;;;;;;;;;12.75;12.75;;;;;14.84;71.87;100943.72;5040700;28;47102;-69
2023/06/05 04:58:32;;;;;;;;;11.50;10.75;;;;;14.93;71.23;100934.44;5040457;28;45291;-69
2023/06/05 05:01:04;;;;;;;;;7.00;7.00;;;;;15.02;72.14;100932.16;5041054;28;45320;-68
2023/06/05 05:03:30;;;;;;;;;8.50;8.50;;;;;15.10;70.90;100928.25;5041010;28;45231;-68
2023/06/05 05:05:56;;;;;;;;;13.00;13.00;;;;;15.24;70.32;100938.97;5039239;28;47337;-72
2023/06/05 05:08:21;;;;;;;;;15.75;14.25;;;;;15.31;70.59;100928.88;5040457;28;45261;-70
2023/06/05 05:10:47;;;;;;;;;13.50;13.50;;;;;15.44;70.55;100931.72;5040613;28;45374;-66
2023/06/05 05:13:12;;;;;;;;;13.25;11.75;;;;;15.52;70.60;100934.78;5041236;28;45260;-71
2023/06/05 05:15:37;;;;;;;;;14.00;14.00;;;;;15.60;70.31;100932.56;5040327;28;46570;-69
2023/06/05 05:18:03;;;;;;;;;13.00;13.00;;;;;15.67;69.69;100929.56;5040573;28;45250;-69
2023/06/05 05:20:29;;;;;;;;;14.00;13.75;;;;;15.76;70.47;100935.22;5039479;28;45437;-69
2023/06/05 05:22:55;;;;;;;;;10.50;10.50;;;;;15.80;69.61;100933.25;5039568;28;45414;-67
2023/06/05 05:25:21;;;;;;;;;13.25;13.00;;;;;15.78;69.06;100921.88;5040434;28;45316;-66
2023/06/05 05:27:47;;;;;;;;;15.00;15.00;;;;;15.89;68.53;100923.94;5039039;28;45569;-68
2023/06/05 05:30:13;;;;;;;;;11.00;11.00;;;;;16.04;68.37;100925.72;5037406;28;45406;-66
2023/06/05 05:32:38;;;;;;;;;13.00;12.50;;;;;16.13;68.43;100936.75;5036574;28;45480;-67
2023/06/05 05:35:04;;;;;;;;;14.00;14.00;;;;;16.17;68.20;100941.78;5036625;28;45382;-67
2023/06/05 05:37:30;;;;;;;;;14.00;14.00;;;;;16.23;67.80;100937.06;5034591;28;45384;-71
2023/06/05 05:39:55;;;;;;;;;14.75;14.75;;;;;16.28;67.78;100937.66;5036470;28;45334;-69
2023/06/05 05:42:20;;;;;;;;;16.50;16.50;;;;;16.30;67.79;100936.59;5036520;28;45229;-68
2023/06/05 05:44:46;;;;;;;;;13.00;13.00;;;;;16.33;67.30;100941.72;5036339;28;45335;-67
2023/06/05 05:47:11;;;;;;;;;16.75;16.75;;;;;16.40;67.42;100938.72;5037233;28;45263;-67
2023/06/05 05:49:37;;;;;;;;;13.75;13.75;;;;;16.40;67.08;100939.59;5036766;28;45360;-66
2023/06/05 05:52:03;;;;;;;;;16.75;16.75;;;;;16.45;67.03;100937.50;5052432;28;45195;-70
2023/06/05 05:54:28;;;;;;;;;17.00;17.00;;;;;16.50;66.49;100943.41;5036806;28;46561;-67
2023/06/05 05:56:55;;;;;;;;;13.50;13.50;;;;;16.53;66.36;100941.50;5037237;28;45363;-71
2023/06/05 05:59:21;;;;;;;;;15.00;15.00;;;;;16.53;66.15;100938.84;5037054;28;45483;-67
2023/06/05 06:01:48;;;;;;;;;12.75;12.75;;;;;16.50;66.36;100940.75;5037547;28;45433;-67
2023/06/05 06:04:13;;;;;;;;;14.25;14.25;;;;;16.46;66.57;100935.72;5037285;28;46259;-67
2023/06/05 06:06:39;;;;;;;;;14.25;14.25;;;;;16.41;66.36;100954.56;5036537;28;45305;-68
2023/06/05 06:09:08;;;;;;;;;14.75;14.75;;;;;16.38;66.53;100957.41;5036672;28;45403;-69
2023/06/05 06:11:33;;;;;;;;;14.75;14.75;;;;;16.39;67.01;100960.91;5035306;28;45544;-70
2023/06/05 06:13:59;;;;;;;;;12.00;12.00;;;;;16.31;66.70;100966.69;5036633;28;45636;-69
2023/06/05 06:16:25;;;;;;;;;13.25;13.25;;;;;16.20;66.67;100964.63;5036225;28;45281;-70
2023/06/05 06:18:50;;;;;;;;;15.25;15.25;;;;;16.13;67.07;100965.94;5036384;28;45376;-65
2023/06/05 06:21:16;;;;;;;;;14.50;14.50;;;;;16.14;67.11;100965.84;5036978;28;45280;-72
2023/06/05 06:23:41;;;;;;;;;14.50;14.50;;;;;16.16;66.80;100968.41;5036378;28;45372;-72
2023/06/05 06:26:07;;;;;;;;;14.00;14.00;;;;;16.14;66.94;100965.00;5035415;28;45367;-69
2023/06/05 06:28:32;;;;;;;;;15.50;15.50;;;;;16.15;66.85;100967.56;5036195;28;45380;-67
2023/06/05 06:30:58;;;;;;;;;18.00;17.50;;;;;16.16;67.05;100961.31;5036033;28;45397;-69
2023/06/05 06:33:24;;;;;;;;;17.75;15.25;;;;;16.23;66.72;100971.56;5035839;28;45851;-68
2023/06/05 06:35:49;;;;;;;;;12.00;12.00;;;;;16.18;66.68;100979.78;5035666;28;45257;-67
2023/06/05 06:38:16;;;;;;;;;18.00;18.00;;;;;16.15;67.13;100980.84;5036166;28;45299;-71
2023/06/05 06:40:41;;;;;;;;;15.25;15.25;;;;;16.18;67.25;100985.97;5041175;28;45610;-65
2023/06/05 06:43:07;;;;;;;;;15.50;15.50;;;;;16.19;67.30;100979.72;5070055;28;48223;-63
2023/06/05 06:45:32;;;;;;;;;14.00;14.00;;;;;16.08;66.82;100957.38;5053525;28;45561;-64
2023/06/05 06:47:57;;;;;;;;;9.50;9.50;;;;;16.25;67.26;100980.31;5070295;27;49680;-68
2023/06/05 06:50:23;;;;;;;;;18.25;17.50;;;;;16.25;66.94;100978.50;5056067;28;45311;-68
2023/06/05 06:52:48;;;;;;;;;12.25;12.25;;;;;16.28;66.69;100973.00;5054549;28;47122;-68
2023/06/05 06:55:14;;;;;;;;;14.00;14.00;;;;;16.34;66.77;100982.44;5055630;28;45342;-67
2023/06/05 06:57:39;;;;;;;;;15.50;15.50;;;;;16.38;66.57;100972.47;5055726;28;45360;-69
2023/06/05 07:00:09;;;;;;;;;14.75;14.75;;;;;16.43;66.46;100987.19;5056113;28;45481;-66
2023/06/05 07:02:36;;;;;;;;;14.00;14.00;;;;;16.47;66.40;100978.09;5055270;28;45490;-66
2023/06/05 07:05:01;;;;;;;;;13.50;13.50;;;;;16.58;66.15;100990.75;5055298;28;45305;-66
2023/06/05 07:07:27;;;;;;;;;15.75;15.75;;;;;16.68;66.24;100980.44;5055430;28;45390;-67
2023/06/05 07:09:53;;;;;;;;;15.00;15.00;;;;;16.75;65.66;100988.91;5055524;28;45577;-77
2023/06/05 07:12:20;;;;;;;;;12.00;12.00;;;;;16.77;65.56;100984.34;5054343;28;46908;-71
2023/06/05 07:14:46;;;;;;;;;11.50;11.50;;;;;16.84;64.74;100984.81;5055741;28;45330;-71
2023/06/05 07:17:12;;;;;;;;;13.50;13.50;;;;;16.89;64.69;100980.94;5055378;28;45487;-71
2023/06/05 07:19:37;;;;;;;;;13.50;13.50;;;;;16.98;64.49;100984.91;5055588;28;45562;-69
2023/06/05 07:22:04;;;;;;;;;14.50;14.00;;;;;17.09;64.13;100986.88;5055266;28;46023;-68
2023/06/05 07:24:30;;;;;;;;;14.25;14.25;;;;;17.17;63.82;100989.09;5055803;28;45230;-71
2023/06/05 07:27:00;;;;;;;;;15.50;15.50;;;;;17.20;63.17;100988.91;5054044;28;45491;-70
2023/06/05 07:29:26;;;;;;;;;14.25;14.25;;;;;17.26;63.18;100993.81;5055402;28;45380;-72
2023/06/05 07:31:54;;;;;;;;;12.50;12.50;;;;;17.32;63.09;100988.13;5053577;28;47023;-69
2023/06/05 07:34:20;;;;;;;;;12.00;12.00;;;;;17.36;63.18;100983.47;5055477;28;45393;-69
2023/06/05 07:36:48;;;;;;;;;10.75;10.75;;;;;17.49;62.58;100989.72;5055044;28;45273;-69
2023/06/05 07:39:14;;;;;;;;;11.25;11.25;;;;;17.56;62.01;100987.53;5055085;28;45288;-68
2023/06/05 07:41:40;;;;;;;;;10.00;10.00;;;;;17.65;61.93;100997.59;5054724;28;46646;-69
2023/06/05 07:44:10;;;;;;;;;14.00;14.00;;;;;17.67;61.87;100997.50;5054616;28;45536;-70
2023/06/05 07:46:35;;;;;;;;;12.00;12.00;;;;;17.71;61.78;100985.72;5044325;28;45192;-69
2023/06/05 07:49:01;;;;;;;;;13.00;13.00;;;;;17.77;61.53;100992.44;5049303;28;45677;-69
2023/06/05 07:51:26;;;;;;;;;14.75;14.75;;;;;17.88;61.24;100992.59;5051447;28;46383;-71
2023/06/05 07:53:52;;;;;;;;;12.75;12.75;;;;;17.98;61.24;100989.34;5034224;28;45331;-70
2023/06/05 07:56:17;;;;;;;;;15.50;15.00;;;;;18.01;60.71;100979.38;5049515;28;45323;-69
2023/06/05 07:58:42;;;;;;;;;11.25;11.25;;;;;18.13;60.64;100983.06;5034351;28;45236;-68
2023/06/05 08:01:08;;;;;;;;;14.00;14.00;;;;;18.19;60.20;100979.13;5033817;28;45305;-69
2023/06/05 08:03:34;;;;;;;;;9.00;9.00;;;;;18.31;60.04;100985.47;5036313;28;45621;-69
2023/06/05 08:05:59;;;;;;;;;15.00;14.75;;;;;18.37;59.98;100975.25;5054520;28;45389;-69
2023/06/05 08:08:25;;;;;;;;;14.50;14.50;;;;;18.47;59.18;100983.47;5070131;28;45575;-69
2023/06/05 08:10:50;;;;;;;;;18.75;18.50;;;;;18.56;58.78;100986.47;5054178;28;45336;-70
2023/06/05 08:13:16;;;;;;;;;16.75;16.75;;;;;18.62;58.63;100984.25;5053965;28;45407;-71
2023/06/05 08:15:42;;;;;;;;;13.00;13.00;;;;;18.65;58.38;100980.53;5054027;28;45396;-69
2023/06/05 08:18:08;;;;;;;;;10.75;10.25;;;;;18.73;58.51;100983.50;5054486;28;45629;-68
2023/06/05 08:20:33;;;;;;;;;14.00;14.00;;;;;18.80;58.46;100987.47;5053747;28;46494;-67
2023/06/05 08:22:58;;;;;;;;;13.50;13.25;;;;;18.90;58.29;100973.50;5053925;28;45754;-69
2023/06/05 08:25:25;;;;;;;;;12.75;12.75;;;;;18.98;57.86;100977.38;5054483;28;45463;-70
2023/06/05 08:27:50;;;;;;;;;11.50;11.50;;;;;19.09;57.40;100976.66;5054384;28;45586;-68
2023/06/05 08:30:17;;;;;;;;;14.25;13.75;;;;;19.12;57.10;100970.22;5052147;28;45526;-72
2023/06/05 08:32:43;;;;;;;;;11.00;11.00;;;;;19.21;56.84;100971.41;5069328;28;45581;-69
2023/06/05 08:35:10;;;;;;;;;13.00;13.00;;;;;19.32;56.76;100973.28;5052432;28;45422;-70
2023/06/05 08:37:35;;;;;;;;;13.50;13.50;;;;;19.42;56.43;100969.00;5054006;28;45890;-69
2023/06/05 08:40:06;;;;;;;;;9.00;9.00;;;;;19.52;55.56;100977.22;5051305;28;46158;-70
2023/06/05 08:42:31;;;;;;;;;12.75;12.75;;;;;19.62;55.88;100978.25;5033187;28;45319;-69
2023/06/05 08:44:57;;;;;;;;;12.50;12.50;;;;;19.70;54.52;100978.56;5031635;28;45321;-69
2023/06/05 08:47:28;;;;;;;;;11.25;11.25;;;;;19.78;55.38;100974.47;5034353;28;45513;-68
2023/06/05 08:49:54;;;;;;;;;12.00;12.00;;;;;19.83;54.85;100972.31;5033939;28;46339;-68
2023/06/05 08:52:22;;;;;;;;;14.50;14.50;;;;;19.96;54.72;100983.81;5033552;28;45268;-68
2023/06/05 08:54:47;;;;;;;;;13.25;13.25;;;;;20.02;54.60;100974.53;5033944;28;45242;-67
2023/06/05 08:57:13;;;;;;;;;13.75;13.75;;;;;20.16;53.63;100972.66;5034064;28;45316;-69
2023/06/05 08:59:40;;;;;;;;;12.50;12.50;;;;;20.23;54.00;100980.09;5033757;28;45481;-69
2023/06/05 09:02:05;;;;;;;;;10.00;10.00;;;;;20.27;53.13;100976.22;5032442;28;45431;-68
2023/06/05 09:04:31;;;;;;;;;13.00;13.00;;;;;20.33;53.29;100982.06;5034848;28;45293;-69
2023/06/05 09:06:58;;;;;;;;;10.75;10.75;;;;;20.35;52.97;100972.97;5037874;28;45288;-68
2023/06/05 09:09:25;;;;;;;;;11.00;11.00;;;;;20.42;52.84;100973.38;5037538;28;46391;-68
2023/06/05 09:12:08;;;;;;;;;13.00;13.00;;;;;20.44;52.76;100966.91;5036982;28;45331;-68
2023/06/05 09:14:34;;;;;;;;;9.25;9.25;;;;;20.54;53.02;100966.22;5035579;28;45306;-69
2023/06/05 09:17:01;;;;;;;;;11.00;11.00;;;;;20.65;52.31;100973.41;5037246;28;45505;-68
2023/06/05 09:19:38;;;;;;;;;8.50;8.50;;;;;20.71;52.48;100972.94;5052593;28;46970;-68
2023/06/05 09:22:06;;;;;;;;;16.50;15.25;;;;;20.77;52.31;100969.78;5036820;28;45468;-68
2023/06/05 09:24:31;;;;;;;;;9.00;9.00;;;;;20.85;52.05;100970.09;5035572;28;45465;-68
2023/06/05 09:27:05;;;;;;;;;13.25;13.25;;;;;20.97;51.93;100967.41;5037478;28;45561;-69
2023/06/05 09:29:43;;;;;;;;;11.00;11.00;;;;;21.10;51.93;100965.47;5036818;28;46395;-70
2023/06/05 09:32:09;;;;;;;;;10.75;10.75;;;;;21.21;51.20;100966.50;5035229;28;45392;-69
2023/06/05 09:34:39;;;;;;;;;11.75;11.75;;;;;21.18;50.68;100951.50;5051950;28;45263;-68
2023/06/05 09:37:07;;;;;;;;;10.75;10.75;;;;;21.36;50.32;100967.06;5036827;28;45264;-67
2023/06/05 09:39:34;;;;;;;;;8.00;8.00;;;;;21.42;50.63;100964.75;5036147;28;45383;-68
2023/06/05 09:42:00;;;;;;;;;11.25;11.25;;;;;21.49;49.83;100961.59;5036118;28;45290;-70
2023/06/05 09:44:27;;;;;;;;;12.00;12.00;;;;;21.52;50.20;100956.81;5036547;28;45339;-70
2023/06/05 09:47:09;;;;;;;;;12.00;12.00;;;;;21.65;49.55;100961.22;5036346;28;45239;-69
2023/06/05 09:49:40;;;;;;;;;10.25;10.25;;;;;21.61;49.50;100933.84;5036261;28;46222;-71
2023/06/05 09:52:08;;;;;;;;;14.00;14.00;;;;;21.76;49.50;100938.94;5036062;28;45375;-70
2023/06/05 09:54:36;;;;;;;;;12.25;12.25;;;;;21.85;49.16;100948.88;5036095;28;45336;-70
2023/06/05 09:57:04;;;;;;;;;10.50;10.50;;;;;21.94;48.83;100949.97;5036243;28;45545;-69
2023/06/05 09:59:31;;;;;;;;;12.75;12.75;;;;;22.00;48.84;100954.81;5036478;28;46221;-69
2023/06/05 10:02:01;;;;;;;;;8.25;8.25;;;;;22.06;47.54;100942.72;5035624;28;45432;-69
2023/06/05 10:04:29;;;;;;;;;9.75;9.75;;;;;22.00;47.74;100936.91;5035956;28;45263;-69
2023/06/05 10:07:00;;;;;;;;;11.50;11.50;;;;;22.15;48.03;100934.78;5036199;28;45312;-69
2023/06/05 10:09:27;;;;;;;;;9.00;9.00;;;;;22.26;47.39;100944.56;5034957;28;45378;-69
2023/06/05 10:11:53;;;;;;;;;10.75;10.75;;;;;22.30;47.49;100938.00;5035683;28;45359;-70
2023/06/05 10:14:20;;;;;;;;;9.00;9.00;;;;;22.49;45.75;100951.69;5036040;28;45381;-70
2023/06/05 10:16:54;;;;;;;;;10.25;10.25;;;;;22.54;43.67;100939.59;5035803;28;45418;-71
2023/06/05 10:19:20;;;;;;;;;9.25;9.25;;;;;22.63;44.23;100940.63;5033387;28;47621;-69
2023/06/05 10:21:49;;;;;;;;;9.50;9.50;;;;;22.73;43.91;100946.06;5035159;28;45376;-71
2023/06/05 10:24:19;;;;;;;;;11.50;11.50;;;;;22.77;43.98;100932.25;5035395;28;45238;-71
2023/06/05 10:26:54;;;;;;;;;9.50;9.50;;;;;22.92;43.84;100934.59;5035654;28;45417;-70
2023/06/05 10:29:57;;;;;;;;;10.50;10.50;;;;;22.99;41.19;100935.75;5035074;28;46641;-69
2023/06/05 10:32:40;;;;;;;;;6.25;6.25;;;;;23.04;41.87;100938.03;5035780;28;45259;-71
2023/06/05 10:35:25;;;;;;;;;9.00;9.00;;;;;23.11;41.60;100936.50;5035796;28;45372;-71
2023/06/05 10:38:13;;;;;;;;;10.25;10.25;;;;;23.24;41.81;100943.50;5035990;28;45723;-69
2023/06/05 10:40:39;;;;;;;;;9.00;9.00;;;;;23.31;41.29;100936.59;5050589;28;47447;-68
2023/06/05 10:43:47;;;;;;;;;11.00;11.00;;;;;23.40;40.41;100937.63;5035104;28;45324;-70
2023/06/05 10:46:28;;;;;;;;;20.50;20.50;;;;;23.49;39.29;100945.72;5032912;28;45503;-70
2023/06/05 10:49:19;;;;;;;;;22.00;22.00;;;;;23.56;39.85;100942.47;5033238;28;45268;-70
2023/06/05 10:51:49;;;;;;;;;50.00;42.00;;;;;23.66;40.08;100939.78;5034716;28;46274;-69
2023/06/05 10:54:15;;;;;;;;;6.50;6.50;;;;;23.75;39.04;100921.03;5033944;28;45646;-68
2023/06/05 10:57:05;;;;;;;;;12.75;12.75;;;;;23.82;37.73;100920.47;5035162;28;45449;-69
2023/06/05 10:59:33;;;;;;;;;9.00;9.00;;;;;23.86;37.96;100919.19;5035774;28;45380;-70
2023/06/05 11:02:17;;;;;;;;;9.00;9.00;;;;;23.90;39.37;100913.41;5034977;28;46238;-70
2023/06/05 11:04:42;;;;;;;;;9.50;8.00;;;;;23.99;39.31;100898.25;5035536;28;45269;-71
2023/06/05 11:07:25;;;;;;;;;10.00;10.00;;;;;24.08;38.21;100896.59;5035273;28;45242;-70
2023/06/05 11:10:02;;;;;;;;;7.50;7.50;;;;;24.11;38.38;100906.19;5035163;28;45581;-72
2023/06/05 11:12:50;;;;;;;;;9.00;9.00;;;;;24.13;38.40;100902.41;5050562;28;47672;-71
2023/06/05 11:15:22;;;;;;;;;9.25;9.25;;;;;24.23;39.12;100905.06;5050693;28;45558;-73
2023/06/05 11:17:48;;;;;;;;;14.00;14.00;;;;;24.30;38.70;100892.75;5050706;28;45410;-70
2023/06/05 11:20:28;;;;;;;;;11.25;11.25;;;;;24.42;37.78;100890.75;5050970;28;45344;-72